Time;durP1;ratioP1;P1;durP2;ratioP2;P2;SDS_P1;SDS_P2;PMS_P1;PMS_P2;Temp;Humidity;BMP_temperature;BMP_pressure;BME280_temperature;BME280_humidity;BME280_pressure;Samples;Min_cycle;Max_cycle;Signal;HPM_P1;HPM_P2
2022/08/17 00:01:18;;;;;;;1.58;1.00;;;15.20;99.90;;;;;;4941204;29;20027;-93
2022/08/17 00:03:46;;;;;;;1.80;0.90;;;15.20;99.90;;;;;;4941412;29;20122;-88
2022/08/17 00:06:23;;;;;;;0.90;0.77;;;15.20;99.90;;;;;;4941435;29;20027;-92
2022/08/17 00:08:52;;;;;;;2.50;0.90;;;15.20;99.90;;;;;;4941471;29;20058;-91
2022/08/17 00:11:29;;;;;;;0.77;0.70;;;15.20;99.90;;;;;;4940497;29;20020;-92
2022/08/17 00:13:59;;;;;;;0.68;0.65;;;15.10;99.90;;;;;;4940662;29;20038;-89
2022/08/17 00:16:35;;;;;;;1.73;0.80;;;15.10;99.90;;;;;;4940849;29;20031;-90
2022/08/17 00:19:03;;;;;;;0.95;0.60;;;15.10;99.90;;;;;;4941055;28;20054;-91
2022/08/17 00:21:30;;;;;;;3.20;1.13;;;15.10;99.90;;;;;;4940187;29;20110;-90
2022/08/17 00:23:56;;;;;;;0.93;0.80;;;15.10;99.90;;;;;;4957400;28;20027;-90
2022/08/17 00:26:24;;;;;;;0.70;0.60;;;15.10;99.90;;;;;;4940618;29;20035;-90
2022/08/17 00:28:49;;;;;;;0.68;0.50;;;15.20;99.90;;;;;;4940738;29;20488;-90
2022/08/17 00:31:15;;;;;;;1.73;0.73;;;15.10;99.90;;;;;;4940354;29;20041;-89
2022/08/17 00:33:42;;;;;;;0.80;0.80;;;15.20;99.90;;;;;;4940364;28;20035;-89
2022/08/17 00:36:08;;;;;;;2.15;0.65;;;15.20;99.90;;;;;;4940557;29;20035;-90
2022/08/17 00:38:35;;;;;;;1.17;0.77;;;15.20;99.90;;;;;;4940413;29;20042;-89
2022/08/17 00:41:08;;;;;;;2.60;0.80;;;15.20;99.90;;;;;;4939485;29;20083;-89
2022/08/17 00:43:39;;;;;;;2.20;2.00;;;15.20;99.90;;;;;;4939815;29;20023;-89
2022/08/17 00:46:09;;;;;;;;;;;15.20;99.90;;;;;;4940716;29;20035;-89
2022/08/17 00:48:35;;;;;;;1.83;1.03;;;15.20;99.90;;;;;;4940320;29;19911;-92
2022/08/17 00:51:17;;;;;;;0.75;0.75;;;15.10;99.90;;;;;;4940272;29;20377;-89
2022/08/17 00:53:48;;;;;;;1.38;0.80;;;15.20;99.90;;;;;;4940027;29;20035;-89
2022/08/17 00:56:17;;;;;;;;;;;15.20;99.90;;;;;;4939621;29;20039;-88
2022/08/17 00:58:43;;;;;;;1.85;0.82;;;15.20;99.90;;;;;;4939677;28;19911;-90
2022/08/17 01:01:11;;;;;;;0.95;0.68;;;15.10;99.90;;;;;;4939274;29;20034;-90
2022/08/17 01:03:37;;;;;;;0.75;0.65;;;15.10;99.90;;;;;;4938769;29;20050;-89
2022/08/17 01:06:06;;;;;;;2.50;0.80;;;15.10;99.90;;;;;;4939007;29;20023;-90
2022/08/17 01:08:33;;;;;;;2.10;0.80;;;15.10;99.90;;;;;;4939175;29;20365;-89
2022/08/17 01:11:01;;;;;;;1.58;0.80;;;15.10;99.90;;;;;;4939582;28;20066;-91
2022/08/17 01:13:30;;;;;;;1.38;0.77;;;15.10;99.90;;;;;;4938713;29;20097;-90
2022/08/17 01:16:04;;;;;;;1.30;0.73;;;15.10;99.90;;;;;;4939132;29;20116;-90
2022/08/17 01:18:30;;;;;;;2.28;0.90;;;15.00;99.90;;;;;;4939175;29;20026;-90
2022/08/17 01:21:00;;;;;;;1.95;0.90;;;15.10;99.90;;;;;;4938433;28;20031;-90
2022/08/17 01:23:27;;;;;;;0.77;0.60;;;15.00;99.90;;;;;;4938927;28;20146;-89
2022/08/17 01:26:00;;;;;;;2.03;0.80;;;15.00;99.90;;;;;;4939494;29;20031;-90
2022/08/17 01:28:30;;;;;;;2.97;0.60;;;15.00;99.90;;;;;;4938874;29;20027;-90
2022/08/17 01:30:56;;;;;;;0.88;0.88;;;15.00;99.90;;;;;;4939107;29;20031;-90
2022/08/17 01:33:22;;;;;;;1.17;0.80;;;15.00;99.90;;;;;;4938548;29;20502;-89
2022/08/17 01:35:47;;;;;;;3.85;1.00;;;15.00;99.90;;;;;;4938897;29;20090;-90
2022/08/17 01:38:15;;;;;;;2.05;1.20;;;15.00;99.90;;;;;;4939514;28;20147;-89
2022/08/17 01:40:51;;;;;;;3.25;1.20;;;15.00;99.90;;;;;;4939540;29;20031;-90
2022/08/17 01:43:24;;;;;;;1.58;1.10;;;14.90;99.90;;;;;;4938921;29;20123;-90
2022/08/17 01:45:53;;;;;;;2.30;1.30;;;14.90;99.90;;;;;;4939022;29;20382;-90
2022/08/17 01:48:19;;;;;;;3.88;1.52;;;14.90;99.90;;;;;;4938608;29;20029;-90
2022/08/17 01:50:48;;;;;;;2.60;1.33;;;14.90;99.90;;;;;;4938861;28;20031;-91
2022/08/17 01:53:19;;;;;;;3.17;1.33;;;14.90;99.90;;;;;;4938542;29;20027;-88
2022/08/17 01:55:50;;;;;;;4.00;1.92;;;14.90;99.90;;;;;;4938134;29;20043;-90
2022/08/17 01:58:17;;;;;;;1.63;1.20;;;14.90;99.90;;;;;;4939002;29;20442;-90
2022/08/17 02:00:44;;;;;;;5.63;1.63;;;14.90;99.90;;;;;;4938574;29;20035;-90
2022/08/17 02:03:11;;;;;;;6.13;1.50;;;14.80;99.90;;;;;;4938349;29;20019;-90
2022/08/17 02:05:38;;;;;;;11.48;1.67;;;14.90;99.90;;;;;;4939279;29;20051;-90
2022/08/17 02:08:05;;;;;;;5.15;1.70;;;14.80;99.90;;;;;;4938627;29;20031;-90
2022/08/17 02:10:32;;;;;;;4.28;1.33;;;14.80;99.90;;;;;;4938783;29;20027;-89
2022/08/17 02:12:58;;;;;;;4.15;1.38;;;14.80;99.90;;;;;;4939032;29;20511;-91
2022/08/17 02:15:24;;;;;;;4.30;1.35;;;14.80;99.90;;;;;;4938596;29;20043;-91
2022/08/17 02:17:50;;;;;;;4.68;1.50;;;14.80;99.90;;;;;;4938613;28;20118;-92
2022/08/17 02:20:16;;;;;;;5.00;1.45;;;14.80;99.90;;;;;;4942324;29;20082;-91
2022/08/17 02:22:44;;;;;;;3.42;1.40;;;14.80;99.90;;;;;;4942989;29;20114;-90
2022/08/17 02:25:15;;;;;;;9.52;1.80;;;14.80;99.90;;;;;;4942720;29;20544;-91
2022/08/17 02:27:41;;;;;;;6.97;1.50;;;14.80;99.90;;;;;;4942927;29;20062;-91
2022/08/17 02:30:10;;;;;;;5.38;1.50;;;14.80;99.90;;;;;;4948742;29;20118;-91
2022/08/17 02:32:36;;;;;;;7.78;1.50;;;14.80;99.90;;;;;;4948180;28;20019;-90
2022/08/17 02:35:03;;;;;;;7.80;1.65;;;14.80;99.90;;;;;;4946443;29;20039;-91
2022/08/17 02:37:30;;;;;;;7.95;1.65;;;14.80;99.90;;;;;;4944783;29;20019;-90
2022/08/17 02:39:57;;;;;;;4.75;1.52;;;14.80;99.90;;;;;;4942924;29;20031;-90
2022/08/17 02:42:34;;;;;;;7.47;1.70;;;14.80;99.90;;;;;;4942928;29;20031;-89
2022/08/17 02:45:01;;;;;;;5.07;1.45;;;14.80;99.90;;;;;;4942368;28;20031;-90
2022/08/17 02:47:27;;;;;;;6.38;1.50;;;14.80;99.90;;;;;;4942971;29;20081;-93
2022/08/17 02:49:53;;;;;;;4.05;1.60;;;14.80;99.90;;;;;;4942401;29;20114;-92
2022/08/17 02:52:19;;;;;;;7.97;1.80;;;14.70;99.90;;;;;;4942536;29;20031;-90
2022/08/17 02:54:45;;;;;;;3.20;1.40;;;14.70;99.90;;;;;;4942242;29;20063;-91
2022/08/17 02:57:11;;;;;;;6.32;1.52;;;14.70;99.90;;;;;;4941771;29;20114;-91
2022/08/17 02:59:40;;;;;;;8.77;1.80;;;14.70;99.90;;;;;;4942338;28;20028;-92
2022/08/17 03:02:08;;;;;;;5.07;1.48;;;14.70;99.90;;;;;;4942001;29;20054;-90
2022/08/17 03:04:34;;;;;;;2.63;1.10;;;14.70;99.90;;;;;;4941325;29;20025;-91
2022/08/17 03:07:00;;;;;;;7.18;1.52;;;14.70;99.90;;;;;;4941495;29;20114;-93
2022/08/17 03:09:25;;;;;;;5.35;1.73;;;14.70;99.90;;;;;;4942083;29;20380;-91
2022/08/17 03:11:51;;;;;;;6.95;1.70;;;14.60;99.90;;;;;;4942302;28;20063;-91
2022/08/17 03:14:18;;;;;;;11.70;3.03;;;14.60;99.90;;;;;;4941340;29;20547;-92
2022/08/17 03:16:43;;;;;;;6.05;1.67;;;14.70;99.90;;;;;;4942106;29;20075;-92
2022/08/17 03:19:09;;;;;;;6.10;1.30;;;14.60;99.90;;;;;;4942104;29;20039;-91
2022/08/17 03:21:35;;;;;;;4.53;1.50;;;14.60;99.90;;;;;;4942230;29;20054;-90
2022/08/17 03:24:01;;;;;;;8.10;1.33;;;14.60;99.90;;;;;;4941482;29;20437;-91
2022/08/17 03:26:27;;;;;;;3.97;1.38;;;14.60;99.90;;;;;;4941398;29;20370;-91
2022/08/17 03:28:53;;;;;;;4.10;1.25;;;14.60;99.90;;;;;;4941283;28;20028;-90
2022/08/17 03:31:20;;;;;;;4.60;1.48;;;14.60;99.90;;;;;;4940224;29;20531;-91
2022/08/17 03:33:46;;;;;;;7.22;2.00;;;14.60;99.90;;;;;;4941596;29;20039;-90
2022/08/17 03:36:12;;;;;;;7.95;1.73;;;14.60;99.90;;;;;;4941490;29;20039;-93
2022/08/17 03:38:38;;;;;;;8.23;1.60;;;14.60;99.90;;;;;;4941252;29;20121;-91
2022/08/17 03:41:05;;;;;;;5.85;1.58;;;14.60;99.90;;;;;;4940936;29;20533;-91
2022/08/17 03:43:33;;;;;;;6.95;1.50;;;14.60;99.90;;;;;;4941217;29;20020;-92
2022/08/17 03:57:04;;;;;;;4.90;1.42;;;14.60;99.90;;;;;;4958159;29;20049;-91
2022/08/17 03:59:31;;;;;;;7.13;1.77;;;14.50;99.90;;;;;;4941243;29;20027;-91
2022/08/17 04:02:02;;;;;;;6.32;1.73;;;14.50;99.90;;;;;;4941130;29;20082;-91
2022/08/17 04:04:28;;;;;;;5.38;1.52;;;14.60;99.90;;;;;;4941137;29;20027;-91
2022/08/17 04:06:54;;;;;;;4.78;1.80;;;14.60;99.90;;;;;;4940812;29;20122;-91
2022/08/17 04:09:19;;;;;;;5.82;1.50;;;14.60;99.90;;;;;;4943736;29;20179;-91
2022/08/17 04:11:45;;;;;;;4.68;1.10;;;14.60;99.90;;;;;;4943730;29;20038;-91
2022/08/17 04:14:11;;;;;;;4.65;1.40;;;14.60;99.90;;;;;;4951005;29;20061;-90
2022/08/17 04:16:37;;;;;;;4.88;1.15;;;14.60;99.90;;;;;;4951651;28;20042;-89
2022/08/17 04:19:04;;;;;;;4.10;1.30;;;14.60;99.90;;;;;;4950627;29;20027;-90
2022/08/17 04:21:30;;;;;;;2.60;1.40;;;14.50;99.90;;;;;;4947258;29;20035;-90
2022/08/17 04:23:57;;;;;;;4.68;1.30;;;14.50;99.90;;;;;;4947676;29;20555;-90
2022/08/17 04:26:23;;;;;;;5.95;1.63;;;14.50;99.90;;;;;;4940449;29;20031;-90
2022/08/17 04:28:49;;;;;;;6.65;1.60;;;14.50;99.90;;;;;;4941003;29;20027;-91
2022/08/17 04:31:16;;;;;;;4.53;1.67;;;14.50;99.90;;;;;;4940069;28;20058;-91
2022/08/17 04:33:43;;;;;;;2.72;1.38;;;14.50;99.90;;;;;;4940226;29;20035;-90
2022/08/17 04:36:12;;;;;;;3.70;1.60;;;14.50;99.90;;;;;;4940244;29;20041;-90
2022/08/17 04:38:40;;;;;;;3.50;1.33;;;14.50;99.90;;;;;;4939928;29;20030;-90
2022/08/17 04:43:57;;;;;;;1.55;0.98;;;14.50;99.90;;;;;;4957213;28;20090;-89
2022/08/17 04:46:27;;;;;;;5.93;2.97;;;14.50;99.90;;;;;;4939303;29;20100;-90
2022/08/17 04:48:56;;;;;;;4.65;1.50;;;14.50;99.90;;;;;;4939838;29;20061;-90
2022/08/17 04:51:37;;;;;;;2.95;1.20;;;14.50;99.90;;;;;;4939579;29;20031;-89
2022/08/17 04:54:06;;;;;;;2.35;0.88;;;14.50;99.90;;;;;;4939006;28;20481;-89
2022/08/17 04:56:33;;;;;;;0.63;0.60;;;14.50;99.90;;;;;;4939485;29;20540;-90
2022/08/17 04:59:02;;;;;;;4.32;1.15;;;14.50;99.90;;;;;;4939631;29;20030;-90
2022/08/17 05:01:30;;;;;;;0.77;0.47;;;14.50;99.90;;;;;;4939926;29;20027;-90
2022/08/17 05:04:01;;;;;;;2.58;0.40;;;14.50;99.90;;;;;;4939317;29;20062;-91
2022/08/17 05:06:28;;;;;;;0.82;0.43;;;14.40;99.90;;;;;;4939285;28;20042;-90
2022/08/17 05:08:55;;;;;;;0.43;0.40;;;14.40;99.90;;;;;;4939749;29;20038;-90
2022/08/17 05:11:22;;;;;;;0.77;0.40;;;14.50;99.90;;;;;;4939728;29;20070;-91
2022/08/17 05:13:51;;;;;;;0.47;0.47;;;14.50;99.90;;;;;;4940096;29;20053;-91
2022/08/17 05:16:18;;;;;;;0.50;0.50;;;14.40;99.90;;;;;;4940169;29;20031;-91
2022/08/17 05:18:44;;;;;;;2.40;0.80;;;14.40;99.90;;;;;;4945540;29;20026;-91
2022/08/17 05:21:10;;;;;;;3.42;0.82;;;14.40;99.90;;;;;;4947582;29;20035;-91
2022/08/17 05:23:36;;;;;;;4.25;0.70;;;14.30;99.90;;;;;;4945587;29;20051;-90
2022/08/17 05:26:02;;;;;;;2.63;0.77;;;14.20;99.90;;;;;;4943872;29;20023;-91
2022/08/17 05:28:30;;;;;;;3.90;1.48;;;14.20;99.90;;;;;;4940601;29;20030;-91
2022/08/17 05:30:59;;;;;;;10.70;1.60;;;14.20;99.90;;;;;;4939774;29;20023;-90
2022/08/17 05:33:28;;;;;;;9.40;1.88;;;14.20;99.90;;;;;;4939318;29;20441;-92
2022/08/17 05:35:56;;;;;;;7.22;1.80;;;14.20;99.90;;;;;;4939660;29;20044;-89
2022/08/17 05:38:24;;;;;;;6.40;1.58;;;14.10;99.90;;;;;;4939886;29;20023;-90
2022/08/17 05:40:51;;;;;;;9.57;1.90;;;14.10;99.90;;;;;;4939723;29;20039;-90
2022/08/17 05:43:20;;;;;;;9.07;1.83;;;14.00;99.90;;;;;;4940297;29;20135;-89
2022/08/17 05:46:16;;;;;;;5.22;1.40;;;14.00;99.90;;;;;;4940163;29;20031;-90
2022/08/17 05:48:45;;;;;;;5.05;1.65;;;14.00;99.90;;;;;;4931344;29;20031;-89
2022/08/17 05:51:23;;;;;;;8.52;1.77;;;14.00;99.90;;;;;;4957051;28;20031;-89
2022/08/17 05:54:26;;;;;;;10.95;1.95;;;14.00;99.90;;;;;;4938659;29;20039;-89
2022/08/17 05:57:14;;;;;;;6.00;1.70;;;13.90;99.90;;;;;;4936901;29;20063;-89
2022/08/17 06:00:06;;;;;;;6.13;1.60;;;13.90;99.90;;;;;;4935426;29;20031;-89
2022/08/17 06:03:00;;;;;;;5.90;1.63;;;14.00;99.90;;;;;;4946816;29;20031;-88
2022/08/17 06:05:37;;;;;;;7.55;1.63;;;14.00;99.90;;;;;;4936615;29;20030;-89
2022/08/17 06:08:13;;;;;;;14.80;2.00;;;14.00;99.90;;;;;;4952546;28;20035;-88
2022/08/17 06:10:51;;;;;;;5.13;1.55;;;13.90;99.90;;;;;;4934900;29;20038;-91
2022/08/17 06:13:30;;;;;;;5.63;2.85;;;13.90;99.90;;;;;;4937076;29;20508;-89
2022/08/17 06:16:02;;;;;;;6.00;2.22;;;13.90;99.90;;;;;;4936726;29;20365;-89
2022/08/17 06:18:40;;;;;;;5.15;1.77;;;13.90;99.90;;;;;;4955433;28;20023;-90
2022/08/17 06:21:10;;;;;;;8.35;2.50;;;13.90;99.90;;;;;;4937323;29;20526;-90
2022/08/17 06:23:49;;;;;;;7.53;2.00;;;13.90;99.90;;;;;;4935104;28;20040;-88
2022/08/17 06:26:19;;;;;;;10.65;2.22;;;13.80;99.90;;;;;;4937059;29;20027;-89
2022/08/17 06:29:07;;;;;;;6.25;2.05;;;13.80;99.90;;;;;;4937298;29;20094;-89
2022/08/17 06:31:35;;;;;;;7.65;1.75;;;13.80;99.90;;;;;;4945008;29;20035;-90
2022/08/17 06:34:05;;;;;;;9.80;1.98;;;13.80;99.90;;;;;;4937508;28;20034;-89
2022/08/17 06:37:17;;;;;;;9.87;2.00;;;13.80;99.90;;;;;;4937643;29;20081;-89
2022/08/17 06:40:01;;;;;;;10.48;2.83;;;13.70;99.90;;;;;;4932882;29;20035;-90
2022/08/17 06:42:33;;;;;;;12.23;3.03;;;13.70;99.90;;;;;;4936933;28;20031;-90
2022/08/17 06:45:07;;;;;;;10.50;1.95;;;13.70;99.90;;;;;;4937883;29;20024;-89
2022/08/17 06:47:40;;;;;;;16.52;2.83;;;13.70;99.90;;;;;;4936793;29;20089;-90
2022/08/17 06:50:17;;;;;;;12.38;2.78;;;13.70;99.90;;;;;;4955853;29;20034;-90
2022/08/17 06:53:09;;;;;;;13.60;3.67;;;13.60;99.90;;;;;;4938667;29;20129;-89
2022/08/17 06:56:00;;;;;;;13.52;2.78;;;13.60;99.90;;;;;;4934540;29;20548;-91
2022/08/17 06:58:30;;;;;;;12.10;1.88;;;13.60;99.90;;;;;;4939071;29;20075;-91
2022/08/17 07:01:00;;;;;;;9.95;2.60;;;13.60;99.90;;;;;;4938570;29;20091;-92
2022/08/17 07:03:54;;;;;;;13.95;3.08;;;13.60;99.90;;;;;;4939398;28;20027;-91
2022/08/17 07:06:32;;;;;;;20.65;3.20;;;13.60;99.90;;;;;;4941147;29;20486;-92
2022/08/17 07:09:01;;;;;;;10.85;3.00;;;13.60;99.90;;;;;;4941984;29;20031;-91
2022/08/17 07:11:31;;;;;;;18.02;3.97;;;13.60;99.90;;;;;;4941859;28;20023;-91
2022/08/17 07:14:24;;;;;;;12.88;2.63;;;13.60;99.90;;;;;;4942079;29;20054;-93
2022/08/17 07:16:53;;;;;;;15.25;2.55;;;13.60;99.90;;;;;;4941743;29;20046;-92
2022/08/17 07:19:24;;;;;;;12.85;2.50;;;13.70;99.90;;;;;;4941644;29;20027;-90
2022/08/17 07:22:21;;;;;;;16.20;2.97;;;13.70;99.90;;;;;;4939472;29;20058;-91
2022/08/17 07:24:59;;;;;;;16.58;2.58;;;13.70;99.90;;;;;;4939243;29;20114;-91
2022/08/17 07:27:29;;;;;;;15.57;3.03;;;13.80;99.90;;;;;;4936965;29;20027;-91
2022/08/17 07:30:06;;;;;;;9.57;2.55;;;13.80;99.90;;;;;;4940291;29;20023;-91
2022/08/17 07:32:45;;;;;;;9.63;2.00;;;13.80;99.90;;;;;;4939537;29;20035;-92
2022/08/17 07:35:17;;;;;;;11.05;3.63;;;13.80;99.90;;;;;;4940452;29;20035;-92
2022/08/17 07:37:51;;;;;;;10.50;2.42;;;13.80;99.90;;;;;;4938702;29;20118;-93
2022/08/17 07:40:28;;;;;;;12.85;2.88;;;13.80;99.90;;;;;;4922788;29;20028;-90
2022/08/17 07:43:07;;;;;;;15.07;3.13;;;13.80;99.90;;;;;;4924821;29;20024;-95
2022/08/17 07:48:23;;;;;;;13.35;2.80;;;13.80;99.90;;;;;;4958613;29;20095;-96
2022/08/17 07:50:52;;;;;;;14.30;3.22;;;13.80;99.90;;;;;;4943608;28;20043;-96
2022/08/17 07:53:24;;;;;;;9.45;2.42;;;13.80;99.90;;;;;;4960182;28;20019;-96
2022/08/17 07:55:58;;;;;;;11.73;2.53;;;13.90;99.90;;;;;;4943749;28;20040;-96
2022/08/17 07:58:29;;;;;;;10.55;2.30;;;13.90;99.90;;;;;;4944601;28;20034;-96
2022/08/17 08:01:07;;;;;;;14.35;2.95;;;13.90;99.90;;;;;;4945091;28;20016;-95
2022/08/17 08:03:39;;;;;;;10.27;2.92;;;13.90;99.90;;;;;;4941595;28;20116;-93
2022/08/17 08:06:22;;;;;;;11.05;3.25;;;14.00;99.90;;;;;;4957520;29;20027;-94
2022/08/17 08:08:53;;;;;;;8.60;2.65;;;14.00;99.90;;;;;;4952180;29;20020;-94
2022/08/17 08:11:34;;;;;;;17.05;3.28;;;14.00;99.90;;;;;;4955011;29;20038;-94
2022/08/17 08:14:37;;;;;;;10.73;2.60;;;14.00;99.90;;;;;;4951809;28;20027;-94
2022/08/17 08:17:05;;;;;;;16.55;3.15;;;14.10;99.90;;;;;;4952225;29;20061;-94
2022/08/17 08:19:35;;;;;;;16.27;2.72;;;14.10;99.90;;;;;;4952210;29;20095;-94
2022/08/17 08:22:10;;;;;;;13.70;3.15;;;14.10;99.90;;;;;;4952222;29;20057;-94
2022/08/17 08:24:38;;;;;;;11.18;2.95;;;14.10;99.90;;;;;;4947749;28;20049;-94
2022/08/17 08:27:38;;;;;;;8.90;2.70;;;14.20;99.90;;;;;;4944312;29;20034;-94
2022/08/17 08:30:06;;;;;;;9.20;2.70;;;14.30;99.90;;;;;;4942964;29;20039;-95
2022/08/17 08:32:57;;;;;;;10.68;2.47;;;14.30;99.90;;;;;;4942630;29;20033;-96
2022/08/17 08:35:25;;;;;;;12.70;3.53;;;14.30;99.90;;;;;;4942236;29;20039;-93
2022/08/17 08:38:11;;;;;;;8.55;2.65;;;14.30;99.90;;;;;;4943922;29;20050;-93
2022/08/17 08:40:42;;;;;;;11.45;3.42;;;14.30;99.90;;;;;;4942488;29;20030;-94
2022/08/17 08:43:21;;;;;;;10.02;2.45;;;14.40;99.90;;;;;;4942596;28;20031;-95
2022/08/17 08:46:11;;;;;;;14.38;3.50;;;14.40;99.90;;;;;;4943960;29;20035;-93
2022/08/17 08:48:45;;;;;;;9.13;2.50;;;14.50;99.90;;;;;;4948901;29;20031;-93
2022/08/17 08:51:14;;;;;;;17.60;2.97;;;14.50;99.90;;;;;;4949146;29;20024;-94
2022/08/17 08:53:48;;;;;;;14.68;2.60;;;14.60;99.90;;;;;;4949312;28;20042;-94
2022/08/17 08:56:41;;;;;;;8.52;2.17;;;14.60;99.90;;;;;;4946957;29;20095;-94
2022/08/17 08:59:26;;;;;;;11.48;2.65;;;14.70;99.90;;;;;;4942688;29;20023;-95
2022/08/17 09:02:05;;;;;;;14.13;2.75;;;14.70;99.90;;;;;;4944838;28;20035;-93
2022/08/17 09:05:10;;;;;;;9.10;2.30;;;14.70;99.90;;;;;;4943751;29;20027;-93
2022/08/17 09:08:00;;;;;;;11.93;2.92;;;14.80;99.90;;;;;;4940429;29;20035;-94
2022/08/17 09:10:55;;;;;;;12.95;2.38;;;14.80;99.90;;;;;;4939527;28;20497;-94
2022/08/17 09:13:44;;;;;;;13.43;2.70;;;14.90;99.90;;;;;;4940559;29;20023;-95
2022/08/17 09:16:18;;;;;;;9.85;2.92;;;14.90;99.90;;;;;;4928094;29;20508;-92
2022/08/17 09:18:50;;;;;;;12.07;2.40;;;15.00;99.90;;;;;;4939980;29;20620;-94
2022/08/17 09:21:51;;;;;;;17.73;2.75;;;15.00;99.90;;;;;;4939319;29;20031;-93
2022/08/17 09:24:43;;;;;;;;;;;15.00;99.90;;;;;;4940103;29;20101;-96
2022/08/17 09:27:20;;;;;;;7.43;2.03;;;15.00;99.90;;;;;;4934637;29;19932;-95
2022/08/17 09:29:56;;;;;;;7.82;1.95;;;15.10;99.90;;;;;;4938303;29;20035;-95
2022/08/17 09:32:44;;;;;;;14.18;2.40;;;15.10;99.90;;;;;;4936610;29;20548;-93
2022/08/17 09:35:16;;;;;;;11.68;3.17;;;15.20;99.90;;;;;;4938425;29;20037;-93
2022/08/17 09:38:06;;;;;;;11.88;3.00;;;15.30;99.90;;;;;;4938832;29;20600;-93
2022/08/17 09:40:34;;;;;;;8.23;2.40;;;15.30;99.90;;;;;;4928072;29;20027;-94
2022/08/17 09:43:32;;;;;;;11.00;2.63;;;15.30;99.90;;;;;;4938617;29;20028;-94
2022/08/17 09:46:07;;;;;;;11.43;2.45;;;15.40;99.90;;;;;;4843787;29;20042;-93
2022/08/17 09:48:49;;;;;;;10.68;3.47;;;15.50;99.90;;;;;;4843583;29;20026;-94
2022/08/17 09:51:34;;;;;;;13.55;2.30;;;15.60;99.90;;;;;;4843845;29;20125;-95
2022/08/17 09:54:00;;;;;;;9.70;2.47;;;15.60;99.90;;;;;;4843556;29;20294;-94
2022/08/17 09:56:48;;;;;;;8.40;2.40;;;15.70;99.90;;;;;;4844537;29;20137;-93
2022/08/17 09:59:31;;;;;;;10.70;2.80;;;15.80;99.90;;;;;;4844585;29;20026;-95
2022/08/17 10:02:24;;;;;;;12.55;2.67;;;15.90;99.90;;;;;;4843548;29;20114;-94
2022/08/17 10:05:00;;;;;;;8.75;2.60;;;15.90;99.90;;;;;;4831104;29;20045;-95
2022/08/17 10:07:56;;;;;;;8.38;2.83;;;16.00;99.90;;;;;;4856677;29;20034;-94
2022/08/17 10:10:32;;;;;;;9.43;3.05;;;16.00;99.90;;;;;;4826357;29;20178;-95
2022/08/17 10:13:14;;;;;;;10.48;2.63;;;16.10;99.90;;;;;;4826595;29;20034;-95
2022/08/17 10:15:45;;;;;;;7.03;2.20;;;16.20;99.90;;;;;;4826991;29;20054;-94
2022/08/17 10:18:30;;;;;;;10.45;2.95;;;16.20;99.90;;;;;;4856330;29;20030;-94
2022/08/17 10:26:45;;;;;;;12.35;2.60;;;16.20;99.90;;;;;;4942279;29;20056;-93
2022/08/17 10:29:23;;;;;;;9.32;2.75;;;16.20;99.90;;;;;;4923044;29;20032;-93
2022/08/17 10:31:54;;;;;;;10.60;3.05;;;16.20;99.90;;;;;;4922150;29;20023;-94
2022/08/17 10:34:52;;;;;;;18.48;3.45;;;16.20;99.90;;;;;;4919926;29;20096;-94
2022/08/17 10:37:36;;;;;;;8.57;2.45;;;16.20;99.90;;;;;;4921343;29;20036;-95
2022/08/17 10:40:10;;;;;;;13.93;2.35;;;16.20;99.90;;;;;;4920833;29;20027;-95
2022/08/17 10:42:42;;;;;;;13.18;2.35;;;16.20;99.90;;;;;;4923253;29;20392;-94
2022/08/17 10:45:36;;;;;;;9.50;2.17;;;16.30;99.90;;;;;;4931260;29;20608;-94
2022/08/17 10:48:05;;;;;;;7.22;2.30;;;16.30;99.90;;;;;;4942094;28;20027;-93
2022/08/17 10:50:46;;;;;;;12.02;3.00;;;16.20;99.90;;;;;;4943004;28;20038;-95
2022/08/17 10:53:30;;;;;;;10.15;2.40;;;16.20;99.90;;;;;;4942425;29;20031;-95
2022/08/17 10:56:12;;;;;;;8.82;2.20;;;16.30;99.90;;;;;;4943374;29;20038;-95
2022/08/17 10:58:45;;;;;;;11.45;2.30;;;16.30;99.90;;;;;;4943453;28;20548;-95
2022/08/17 11:01:12;;;;;;;10.27;2.17;;;16.30;99.90;;;;;;4945072;29;20489;-96
2022/08/17 11:04:00;;;;;;;6.28;2.00;;;16.30;99.90;;;;;;4948937;29;20039;-94
2022/08/17 11:06:53;;;;;;;7.07;2.65;;;16.30;99.90;;;;;;4936008;29;20114;-94
2022/08/17 11:09:45;;;;;;;12.32;3.42;;;16.30;99.90;;;;;;4899849;29;20039;-95
2022/08/17 11:12:47;;;;;;;8.80;2.08;;;16.40;99.90;;;;;;4932283;29;20031;-94
2022/08/17 11:15:41;;;;;;;7.28;2.30;;;16.40;99.90;;;;;;4927358;29;20047;-95
2022/08/17 11:18:12;;;;;;;14.27;2.42;;;16.40;99.90;;;;;;4941580;29;20062;-92
2022/08/17 11:21:01;;;;;;;13.45;2.28;;;16.40;99.90;;;;;;4942465;29;20031;-95
2022/08/17 11:23:47;;;;;;;8.85;2.20;;;16.40;99.90;;;;;;4941940;29;20086;-92
2022/08/17 11:26:31;;;;;;;7.60;2.63;;;16.40;99.90;;;;;;4942694;29;20020;-95
2022/08/17 11:29:16;;;;;;;10.45;2.45;;;16.40;99.90;;;;;;4959415;28;20031;-94
2022/08/17 11:31:56;;;;;;;8.50;1.90;;;16.40;99.90;;;;;;4924079;29;20032;-95
2022/08/17 11:34:25;;;;;;;;;;;16.50;99.90;;;;;;4932079;29;20031;-95
2022/08/17 11:37:02;;;;;;;10.23;3.08;;;16.50;99.90;;;;;;4943970;29;20407;-96
2022/08/17 11:39:42;;;;;;;3.92;2.08;;;16.60;99.90;;;;;;4932995;29;20110;-96
2022/08/17 11:42:26;;;;;;;8.85;1.75;;;16.60;99.90;;;;;;4932476;29;20031;-94
2022/08/17 11:44:56;;;;;;;5.63;1.90;;;16.70;99.90;;;;;;4938857;29;20023;-91
2022/08/17 11:53:36;;;;;;;5.28;1.63;;;17.00;99.90;;;;;;4969246;28;20070;-89
2022/08/17 11:56:05;;;;;;;7.45;1.90;;;17.10;99.90;;;;;;4954010;29;20051;-93
2022/08/17 11:58:40;;;;;;;5.63;1.90;;;17.20;99.90;;;;;;4943096;29;20034;-94
2022/08/17 12:01:31;;;;;;;8.45;1.80;;;17.30;99.90;;;;;;4944796;29;20477;-93
2022/08/17 12:04:16;;;;;;;11.95;2.17;;;17.30;99.90;;;;;;4900524;29;20039;-93
2022/08/17 12:06:53;;;;;;;6.65;2.03;;;17.30;99.90;;;;;;4933511;29;20031;-95
2022/08/17 12:09:23;;;;;;;11.90;2.60;;;17.40;99.90;;;;;;4926995;29;20028;-92
2022/08/17 12:11:49;;;;;;;8.90;2.03;;;17.40;99.90;;;;;;4943221;28;20024;-93
2022/08/17 12:14:25;;;;;;;9.00;2.50;;;17.40;99.90;;;;;;4936379;29;20112;-92
2022/08/17 12:17:20;;;;;;;7.53;2.00;;;17.50;99.90;;;;;;4941368;29;20094;-94
2022/08/17 12:19:46;;;;;;;4.60;1.90;;;17.50;99.90;;;;;;4940459;29;20035;-92
2022/08/17 12:22:20;;;;;;;6.80;1.83;;;17.60;99.90;;;;;;4941402;29;20501;-94
2022/08/17 12:25:01;;;;;;;5.82;2.05;;;17.70;99.90;;;;;;4942719;29;20055;-93
2022/08/17 12:27:34;;;;;;;5.18;2.30;;;17.70;99.90;;;;;;4948929;29;20015;-94
2022/08/17 12:30:11;;;;;;;7.03;2.15;;;17.70;99.90;;;;;;4942490;29;20361;-93
2022/08/17 12:32:39;;;;;;;6.10;2.10;;;17.70;99.90;;;;;;4937710;29;20023;-96
2022/08/17 12:35:35;;;;;;;9.15;2.15;;;17.70;99.90;;;;;;4934655;29;20035;-94
2022/08/17 12:38:03;;;;;;;8.85;2.35;;;17.80;99.90;;;;;;4940973;29;20110;-95
2022/08/17 12:40:31;;;;;;;6.75;1.98;;;17.80;99.90;;;;;;4940294;29;20027;-93
2022/08/17 12:43:01;;;;;;;8.02;2.30;;;17.90;99.90;;;;;;4939866;28;20027;-94
2022/08/17 12:45:29;;;;;;;10.23;2.15;;;17.90;99.90;;;;;;4939521;29;20519;-93
2022/08/17 12:48:06;;;;;;;7.97;2.55;;;18.00;99.90;;;;;;4957139;28;20035;-93
2022/08/17 12:50:38;;;;;;;5.20;2.20;;;18.10;99.90;;;;;;4940687;29;20515;-93
2022/08/17 12:53:14;;;;;;;6.95;1.83;;;18.10;99.90;;;;;;4939599;29;20027;-93
2022/08/17 12:55:43;;;;;;;4.13;2.05;;;18.20;99.90;;;;;;4922512;29;20098;-94
2022/08/17 12:58:23;;;;;;;8.75;2.42;;;18.30;99.90;;;;;;4923257;29;20118;-94
2022/08/17 13:00:58;;;;;;;9.45;2.53;;;18.40;99.90;;;;;;4922076;29;20031;-94
2022/08/17 13:03:29;;;;;;;6.90;1.95;;;18.50;99.90;;;;;;4924444;29;20036;-95
2022/08/17 13:06:00;;;;;;;7.35;2.13;;;18.50;99.90;;;;;;4921654;29;20024;-96
2022/08/17 13:08:34;;;;;;;6.90;2.05;;;18.60;99.90;;;;;;4921884;29;20032;-95
2022/08/17 13:11:20;;;;;;;3.10;1.55;;;18.60;99.90;;;;;;4924914;29;20058;-92
2022/08/17 13:13:53;;;;;;;5.55;1.95;;;18.60;99.90;;;;;;4923782;29;20504;-95
2022/08/17 13:16:26;;;;;;;6.25;2.00;;;18.60;99.90;;;;;;4924142;29;20091;-95
2022/08/17 13:18:54;;;;;;;4.90;1.98;;;18.60;99.90;;;;;;4925366;29;20119;-95
2022/08/17 13:21:22;;;;;;;7.43;2.05;;;18.50;99.90;;;;;;4926046;29;20028;-96
2022/08/17 13:24:12;;;;;;;5.90;2.15;;;18.60;99.90;;;;;;4928424;29;20031;-95
2022/08/17 13:26:51;;;;;;;6.30;2.20;;;18.70;99.90;;;;;;4940418;29;20023;-94
2022/08/17 13:29:37;;;;;;;3.10;1.58;;;18.70;99.90;;;;;;4950287;29;20050;-94
2022/08/17 13:32:21;;;;;;;6.72;1.58;;;18.70;99.90;;;;;;4950280;29;20063;-95
2022/08/17 13:34:59;;;;;;;3.58;1.90;;;18.70;99.90;;;;;;4949617;28;20059;-94
2022/08/17 13:37:31;;;;;;;5.13;1.58;;;18.80;99.90;;;;;;4943380;29;20028;-95
2022/08/17 13:40:01;;;;;;;7.43;2.00;;;18.80;99.90;;;;;;4945736;29;20488;-96
2022/08/17 13:42:39;;;;;;;7.07;2.08;;;18.80;99.90;;;;;;4942612;29;20031;-95
2022/08/17 13:45:27;;;;;;;4.65;1.90;;;18.90;99.90;;;;;;4945382;29;20035;-95
2022/08/17 13:48:07;;;;;;;5.63;2.00;;;18.90;99.90;;;;;;4943473;29;20059;-92
2022/08/17 13:50:58;;;;;;;5.53;2.75;;;18.90;99.90;;;;;;4942778;29;20062;-95